createdAt,value
2018-09-22T00:01:43.821Z,421.33
2018-09-22T00:04:12.299Z,440.17
2018-09-22T00:06:40.813Z,478.83
2018-09-22T00:09:10.562Z,461.90
2018-09-22T00:11:39.157Z,478.43
2018-09-22T00:14:07.720Z,445.07
2018-09-22T00:16:36.212Z,435.20
2018-09-22T00:19:04.865Z,409.47
2018-09-22T00:21:33.338Z,433.40
2018-09-22T00:24:01.789Z,426.50
2018-09-22T00:26:30.271Z,422.43
2018-09-22T00:28:58.803Z,402.87
2018-09-22T00:31:27.372Z,406.73
2018-09-22T00:33:55.940Z,385.53
2018-09-22T00:36:24.472Z,374.10
2018-09-22T00:38:52.999Z,377.23
2018-09-22T00:41:21.687Z,354.13
2018-09-22T00:43:50.248Z,333.90
2018-09-22T00:46:18.778Z,330.97
2018-09-22T00:48:47.236Z,303.20
2018-09-22T00:51:15.733Z,328.70
2018-09-22T00:53:44.238Z,307.77
2018-09-22T00:56:12.751Z,309.30
2018-09-22T00:58:41.272Z,330.17
2018-09-22T01:01:10.319Z,314.33
2018-09-22T01:03:38.805Z,294.53
2018-09-22T01:06:07.620Z,296.23
2018-09-22T01:08:36.178Z,303.77
2018-09-22T01:11:04.703Z,289.93
2018-09-22T01:13:33.232Z,265.23
2018-09-22T01:16:01.786Z,274.33
2018-09-22T01:18:30.434Z,258.83
2018-09-22T01:20:58.894Z,264.43
2018-09-22T01:23:27.396Z,284.07
2018-09-22T01:25:55.983Z,284.07
2018-09-22T01:28:24.458Z,317.67
2018-09-22T01:30:53.754Z,294.70
2018-09-22T01:33:22.221Z,311.00
2018-09-22T01:35:50.730Z,303.63
2018-09-22T01:38:19.231Z,305.07
2018-09-22T01:40:47.727Z,292.13
2018-09-22T01:43:16.339Z,280.30
2018-09-22T01:45:44.859Z,267.13
2018-09-22T01:48:13.460Z,307.13
2018-09-22T01:50:41.983Z,294.00
2018-09-22T01:53:10.540Z,295.63
2018-09-22T01:55:39.023Z,322.63
2018-09-22T01:58:07.515Z,324.70
2018-09-22T02:00:36.039Z,317.93
2018-09-22T02:03:04.530Z,319.17
2018-09-22T02:05:33.201Z,326.03
2018-09-22T02:08:01.737Z,316.70
2018-09-22T02:10:30.237Z,321.87
2018-09-22T02:12:58.785Z,330.90
2018-09-22T02:15:27.439Z,333.43
2018-09-22T02:17:55.939Z,348.07
2018-09-22T02:20:24.507Z,342.83
2018-09-22T02:22:52.968Z,345.83
2018-09-22T02:25:21.481Z,347.57
2018-09-22T02:27:49.965Z,350.87
2018-09-22T02:30:18.421Z,344.27
2018-09-22T02:32:47.038Z,339.43
2018-09-22T02:35:15.509Z,356.27
2018-09-22T02:37:44.048Z,333.67
2018-09-22T02:40:12.539Z,379.57
2018-09-22T02:42:41.048Z,376.70
2018-09-22T02:45:09.502Z,394.73
2018-09-22T02:47:38.090Z,380.90
2018-09-22T02:50:06.632Z,394.23
2018-09-22T02:52:35.175Z,367.37
2018-09-22T02:55:03.700Z,379.13
2018-09-22T02:57:32.204Z,313.70
2018-09-22T03:00:00.665Z,305.40
2018-09-22T03:02:29.152Z,324.10
2018-09-22T03:04:57.651Z,342.97
2018-09-22T03:07:26.125Z,326.47
2018-09-22T03:09:54.624Z,327.07
2018-09-22T03:12:23.120Z,333.53
2018-09-22T03:14:51.765Z,342.90
2018-09-22T03:17:20.310Z,372.63
2018-09-22T03:19:48.797Z,420.67
2018-09-22T03:22:17.312Z,439.13
2018-09-22T03:24:45.779Z,445.43
2018-09-22T03:27:14.319Z,454.67
2018-09-22T03:29:42.813Z,446.73
2018-09-22T03:32:11.519Z,454.17
2018-09-22T03:34:40.009Z,468.90
2018-09-22T03:37:08.465Z,464.40
2018-09-22T03:39:36.953Z,464.40
2018-09-22T03:42:05.623Z,455.70
2018-09-22T03:44:34.071Z,472.63
2018-09-22T03:47:02.581Z,460.40
2018-09-22T03:49:31.076Z,477.17
2018-09-22T03:51:59.586Z,465.93
2018-09-22T03:54:34.555Z,454.33
2018-09-22T03:57:03.090Z,440.43
2018-09-22T03:59:31.648Z,439.63
2018-09-22T04:02:00.095Z,394.23
2018-09-22T04:04:28.536Z,383.70
2018-09-22T04:06:57.025Z,390.00
2018-09-22T04:09:25.503Z,389.20
2018-09-22T04:11:54.003Z,361.53
2018-09-22T04:14:22.537Z,345.97
2018-09-22T04:16:51.032Z,317.73
2018-09-22T04:19:19.516Z,325.10
2018-09-22T04:21:47.963Z,345.03
2018-09-22T04:24:19.497Z,344.87
2018-09-22T04:26:49.725Z,318.30
2018-09-22T04:29:18.753Z,339.53
2018-09-22T04:31:47.340Z,321.90
2018-09-22T04:34:15.799Z,356.17
2018-09-22T04:36:44.773Z,344.03
2018-09-22T04:39:13.260Z,309.57
2018-09-22T04:41:43.223Z,327.83
2018-09-22T04:44:11.682Z,316.93
2018-09-22T04:46:40.171Z,329.67
2018-09-22T04:49:08.840Z,334.10
2018-09-22T04:51:37.288Z,342.20
2018-09-22T04:54:05.782Z,320.80
2018-09-22T04:56:34.276Z,343.80
2018-09-22T04:59:02.744Z,342.20
2018-09-22T05:01:31.248Z,347.17
2018-09-22T05:03:59.698Z,324.60
2018-09-22T05:06:28.214Z,333.13
2018-09-22T05:08:56.688Z,331.20
2018-09-22T05:11:25.278Z,344.93
2018-09-22T05:13:54.088Z,321.67
2018-09-22T05:16:22.532Z,304.47
2018-09-22T05:18:51.028Z,294.93
2018-09-22T05:21:19.540Z,290.43
2018-09-22T05:23:48.105Z,261.30
2018-09-22T05:26:16.643Z,272.40
2018-09-22T05:28:45.081Z,268.33
2018-09-22T05:31:13.592Z,295.37
2018-09-22T05:33:42.053Z,308.37
2018-09-22T05:36:10.574Z,300.33
2018-09-22T05:38:39.248Z,322.23
2018-09-22T05:41:07.756Z,314.93
2018-09-22T05:43:36.512Z,312.83
2018-09-22T05:46:05.019Z,308.90
2018-09-22T05:48:33.467Z,320.40
2018-09-22T05:51:01.963Z,323.90
2018-09-22T05:53:30.399Z,327.00
2018-09-22T05:55:58.878Z,319.43
2018-09-22T05:58:27.399Z,340.27
2018-09-22T06:00:55.902Z,339.27
2018-09-22T06:03:24.489Z,326.77
2018-09-22T06:05:52.918Z,324.90
2018-09-22T06:08:21.356Z,303.23
2018-09-22T06:10:49.875Z,290.03
2018-09-22T06:13:18.509Z,304.97
2018-09-22T06:15:46.959Z,286.73
2018-09-22T06:18:15.429Z,291.10
2018-09-22T06:20:43.916Z,293.30
2018-09-22T06:23:12.493Z,283.23
2018-09-22T06:25:40.895Z,277.77
2018-09-22T06:28:09.489Z,249.30
2018-09-22T06:30:38.050Z,242.17
2018-09-22T06:33:06.520Z,227.17
2018-09-22T06:35:35.005Z,243.30
2018-09-22T06:38:03.480Z,239.33
2018-09-22T06:40:31.969Z,256.97
2018-09-22T06:43:00.429Z,275.77
2018-09-22T06:45:28.917Z,277.70
2018-09-22T06:47:57.364Z,277.63
2018-09-22T06:50:25.888Z,289.93
2018-09-22T06:52:54.356Z,279.57
2018-09-22T06:55:22.879Z,306.10
2018-09-22T06:57:51.380Z,328.73
2018-09-22T07:00:19.881Z,322.20
2018-09-22T07:02:48.382Z,303.10
2018-09-22T07:05:16.831Z,281.80
2018-09-22T07:07:45.333Z,293.60
2018-09-22T07:10:13.922Z,277.90
2018-09-22T07:12:42.440Z,331.33
2018-09-22T07:15:10.961Z,390.43
2018-09-22T07:17:39.453Z,481.47
2018-09-22T07:20:08.004Z,602.87
2018-09-22T07:22:41.775Z,659.20
2018-09-22T07:25:10.285Z,689.73
2018-09-22T07:27:38.858Z,728.97
2018-09-22T07:30:07.474Z,743.20
2018-09-22T07:32:35.980Z,748.77
2018-09-22T07:35:04.511Z,732.13
2018-09-22T07:37:33.021Z,716.83
2018-09-22T07:40:01.648Z,685.43
2018-09-22T07:42:31.372Z,670.00
2018-09-22T07:44:59.894Z,668.47
2018-09-22T07:47:28.442Z,664.53
2018-09-22T07:49:56.891Z,689.03
2018-09-22T07:52:25.386Z,716.00
2018-09-22T07:54:53.846Z,716.40
2018-09-22T07:57:22.409Z,686.70
2018-09-22T07:59:50.934Z,701.27
2018-09-22T08:02:19.495Z,713.17
2018-09-22T08:04:47.978Z,741.47
2018-09-22T08:07:16.522Z,758.80
2018-09-22T08:09:44.991Z,691.30
2018-09-22T08:12:13.488Z,757.80
2018-09-22T08:14:42.305Z,773.30
2018-09-22T08:17:10.784Z,780.57
2018-09-22T08:19:39.289Z,756.90
2018-09-22T08:22:07.761Z,771.20
2018-09-22T08:24:36.236Z,727.17
2018-09-22T08:27:04.800Z,728.17
2018-09-22T08:29:33.260Z,718.43
2018-09-22T08:32:01.750Z,701.80
2018-09-22T08:34:30.304Z,707.73
2018-09-22T08:36:59.082Z,631.63
2018-09-22T08:39:27.505Z,592.97
2018-09-22T08:41:56.079Z,546.27
2018-09-22T08:44:25.483Z,552.63
2018-09-22T08:46:54.155Z,577.77
2018-09-22T08:49:22.745Z,663.20
2018-09-22T08:51:51.218Z,741.80
2018-09-22T08:54:19.749Z,758.73
2018-09-22T08:56:48.280Z,758.27
2018-09-22T08:59:16.928Z,734.03
2018-09-22T09:01:45.448Z,727.00
2018-09-22T09:04:13.995Z,768.37
2018-09-22T09:06:42.509Z,757.60
2018-09-22T09:09:11.378Z,759.60
2018-09-22T09:11:39.939Z,704.90
2018-09-22T09:14:08.946Z,705.13
2018-09-22T09:16:37.419Z,722.93
2018-09-22T09:19:06.065Z,690.63
2018-09-22T09:21:34.664Z,678.47
2018-09-22T09:24:03.290Z,721.60
2018-09-22T09:26:31.894Z,686.57
2018-09-22T09:29:00.407Z,721.30
2018-09-22T09:31:29.084Z,719.67
2018-09-22T09:33:57.644Z,720.33
2018-09-22T09:36:26.190Z,739.50
2018-09-22T09:38:59.980Z,722.10
2018-09-22T09:41:28.596Z,727.77
2018-09-22T09:43:57.189Z,720.10
2018-09-22T09:46:25.939Z,735.00
2018-09-22T09:48:54.448Z,761.17
2018-09-22T09:51:24.033Z,780.33
2018-09-22T09:53:52.615Z,773.43
2018-09-22T09:56:21.559Z,749.47
2018-09-22T09:58:50.832Z,786.03
2018-09-22T10:01:19.504Z,796.60
2018-09-22T10:03:48.162Z,804.60
2018-09-22T10:06:16.669Z,778.33
2018-09-22T10:08:45.402Z,808.00
2018-09-22T10:11:13.969Z,779.07
2018-09-22T10:13:42.629Z,772.13
2018-09-22T10:16:12.052Z,794.90
2018-09-22T10:18:40.676Z,763.73
2018-09-22T10:21:09.460Z,762.30
2018-09-22T10:23:37.955Z,753.53
2018-09-22T10:26:06.702Z,753.03
2018-09-22T10:28:35.450Z,742.30
2018-09-22T10:31:04.429Z,726.30
2018-09-22T10:33:33.359Z,727.07
2018-09-22T10:36:02.109Z,743.53
2018-09-22T10:38:30.684Z,737.50
2018-09-22T10:40:59.400Z,728.63
2018-09-22T10:43:28.127Z,730.07
2018-09-22T10:45:56.721Z,709.63
2018-09-22T10:48:25.205Z,726.67
2018-09-22T10:50:53.699Z,695.37
2018-09-22T10:53:22.283Z,701.60
2018-09-22T10:55:50.909Z,719.63
2018-09-22T10:58:19.584Z,717.13
2018-09-22T11:00:48.162Z,735.13
2018-09-22T11:03:16.810Z,710.80
2018-09-22T11:05:45.801Z,710.10
2018-09-22T11:08:14.476Z,715.07
2018-09-22T11:10:43.017Z,707.13
2018-09-22T11:13:11.581Z,702.70
2018-09-22T11:15:40.172Z,701.57
2018-09-22T11:18:08.712Z,699.93
2018-09-22T11:20:37.277Z,722.77
2018-09-22T11:34:33.653Z,754.90
2018-09-22T11:37:12.004Z,680.00
2018-09-22T11:39:46.239Z,673.57
2018-09-22T11:42:26.611Z,660.77
2018-09-22T11:45:05.452Z,662.97
2018-09-22T11:47:55.930Z,720.30
2018-09-22T11:50:29.103Z,711.10
2018-09-22T11:53:09.124Z,724.90
2018-09-22T11:55:44.708Z,738.03
2018-09-22T11:58:21.879Z,663.77
2018-09-22T12:00:55.599Z,668.77
2018-09-22T12:03:33.768Z,682.73
2018-09-22T12:06:14.368Z,678.23
2018-09-22T12:08:53.879Z,654.20
2018-09-22T12:11:28.012Z,700.23
2018-09-22T12:14:03.444Z,654.00
2018-09-22T12:16:45.176Z,662.27
2018-09-22T12:19:28.006Z,638.47
2018-09-22T12:22:07.768Z,531.00
2018-09-22T12:24:46.345Z,565.03
2018-09-22T12:27:18.044Z,646.57
2018-09-22T12:29:58.713Z,715.73
2018-09-22T12:32:37.496Z,726.73
2018-09-22T12:35:15.706Z,755.10
2018-09-22T12:37:50.095Z,746.73
2018-09-22T12:40:23.482Z,750.83
2018-09-22T12:43:00.001Z,783.37
2018-09-22T12:45:38.075Z,779.60
2018-09-22T12:48:10.993Z,791.50
2018-09-22T12:50:48.731Z,792.67
2018-09-22T12:53:22.303Z,798.17
2018-09-22T12:55:56.415Z,801.17
2018-09-22T12:58:33.017Z,812.03
2018-09-22T13:01:08.550Z,808.40
2018-09-22T13:03:44.065Z,812.57
2018-09-22T13:06:22.059Z,807.60
2018-09-22T13:08:58.003Z,801.93
2018-09-22T13:11:36.723Z,803.97
2018-09-22T13:14:06.533Z,805.53
2018-09-22T13:16:43.604Z,800.53
2018-09-22T13:19:21.793Z,796.67
2018-09-22T13:22:01.748Z,796.67
2018-09-22T13:24:44.902Z,794.00
2018-09-22T13:27:28.067Z,785.93
2018-09-22T13:30:04.278Z,808.73
2018-09-22T13:32:56.182Z,798.13
2018-09-22T13:44:29.671Z,733.17
2018-09-22T13:47:09.290Z,730.50
2018-09-22T13:49:54.066Z,742.67
2018-09-22T13:52:34.121Z,757.17
2018-09-22T13:55:25.780Z,719.70
2018-09-22T13:58:05.528Z,687.77
2018-09-22T14:00:48.323Z,707.43
2018-09-22T14:03:26.738Z,742.23
2018-09-22T14:06:13.331Z,741.83
2018-09-22T14:08:49.370Z,751.67
2018-09-22T14:11:18.124Z,705.17
2018-09-22T14:13:46.724Z,728.53
2018-09-22T14:16:15.739Z,756.23
2018-09-22T14:18:44.297Z,720.97
2018-09-22T14:21:12.935Z,731.33
2018-09-22T14:23:41.464Z,719.83
2018-09-22T14:26:20.969Z,722.97
2018-09-22T14:28:57.182Z,688.43
2018-09-22T14:31:34.681Z,709.40
2018-09-22T14:34:17.843Z,692.23
2018-09-22T14:36:55.403Z,696.87
2018-09-22T14:39:30.019Z,694.53
2018-09-22T14:42:05.264Z,707.10
2018-09-22T14:44:40.413Z,686.10
2018-09-22T14:47:19.827Z,715.67
2018-09-22T14:49:56.965Z,710.33
2018-09-22T14:52:29.572Z,693.50
2018-09-22T14:55:03.722Z,687.47
2018-09-22T14:57:39.100Z,652.67
2018-09-22T15:00:21.985Z,627.17
2018-09-22T15:03:04.335Z,610.63
2018-09-22T15:05:40.745Z,596.00
2018-09-22T15:08:20.430Z,602.93
2018-09-22T15:10:56.337Z,604.47
2018-09-22T15:13:35.739Z,582.10
2018-09-22T15:16:08.630Z,582.20
2018-09-22T15:18:50.845Z,557.17
2018-09-22T15:21:37.939Z,553.90
2018-09-22T15:30:18.694Z,616.23
2018-09-22T15:33:33.450Z,654.83
2018-09-22T15:36:45.394Z,667.53
2018-09-22T15:42:44.707Z,655.10
2018-09-22T15:45:21.352Z,638.33
2018-09-22T15:47:58.702Z,687.83
2018-09-22T15:50:40.414Z,663.17
2018-09-22T15:53:16.160Z,672.77
2018-09-22T15:55:54.593Z,673.77
2018-09-22T15:58:28.841Z,669.67
2018-09-22T16:01:10.724Z,695.30
2018-09-22T16:04:00.273Z,670.50
2018-09-22T16:06:30.479Z,638.23
2018-09-22T16:09:00.216Z,625.73
2018-09-22T16:11:29.997Z,585.97
2018-09-22T16:13:58.733Z,539.47
2018-09-22T16:16:27.272Z,522.47
2018-09-22T16:18:57.310Z,435.40
2018-09-22T16:21:28.090Z,378.90
2018-09-22T16:23:59.227Z,417.87
2018-09-22T16:26:27.928Z,395.57
2018-09-22T16:28:56.494Z,360.03
2018-09-22T16:31:25.049Z,381.47
2018-09-22T16:33:55.114Z,363.70
2018-09-22T16:36:23.740Z,387.83
2018-09-22T16:38:53.180Z,367.80
2018-09-22T16:41:21.723Z,364.40
2018-09-22T16:43:50.267Z,383.57
2018-09-22T16:46:18.866Z,384.40
2018-09-22T16:48:47.462Z,387.40
2018-09-22T16:51:15.953Z,377.37
2018-09-22T16:53:44.551Z,411.57
2018-09-22T16:56:13.068Z,423.17
2018-09-22T16:58:41.709Z,409.30
2018-09-22T17:01:10.608Z,439.40
2018-09-22T17:03:39.169Z,426.13
2018-09-22T17:06:07.756Z,421.50
2018-09-22T17:08:36.301Z,431.80
2018-09-22T17:11:04.879Z,413.83
2018-09-22T17:13:33.481Z,412.47
2018-09-22T17:16:02.036Z,422.93
2018-09-22T17:18:30.890Z,444.30
2018-09-22T17:20:59.437Z,386.40
2018-09-22T17:23:28.008Z,413.30
2018-09-22T17:25:56.528Z,412.47
2018-09-22T17:28:25.030Z,407.90
2018-09-22T17:30:53.545Z,399.17
2018-09-22T17:33:22.106Z,401.70
2018-09-22T17:35:50.592Z,415.93
2018-09-22T17:38:19.077Z,445.30
2018-09-22T17:40:47.651Z,415.63
2018-09-22T17:43:16.314Z,404.07
2018-09-22T17:45:44.796Z,420.13
2018-09-22T17:48:13.359Z,384.47
2018-09-22T17:50:41.899Z,428.27
2018-09-22T17:53:10.372Z,387.80
2018-09-22T17:55:39.844Z,379.97
2018-09-22T17:58:10.164Z,389.00
2018-09-22T18:00:45.928Z,362.33
2018-09-22T18:03:17.345Z,380.80
2018-09-22T18:05:50.001Z,404.40
2018-09-22T18:08:24.324Z,378.70
2018-09-22T18:10:55.958Z,414.10
2018-09-22T18:13:26.478Z,419.70
2018-09-22T18:15:57.215Z,439.07
2018-09-22T18:18:27.435Z,491.27
2018-09-22T18:21:05.401Z,470.60
2018-09-22T18:23:36.707Z,521.87
2018-09-22T18:26:09.860Z,611.53
2018-09-22T18:28:40.824Z,592.80
2018-09-22T18:31:10.672Z,685.37
2018-09-22T18:33:41.993Z,758.20
2018-09-22T18:36:12.365Z,726.27
2018-09-22T18:38:44.120Z,761.87
2018-09-22T18:41:14.421Z,807.73
2018-09-22T18:43:44.636Z,855.47
2018-09-22T18:46:16.443Z,851.57
2018-09-22T18:48:50.851Z,863.97
2018-09-22T18:51:21.042Z,870.40
2018-09-22T18:53:51.855Z,864.90
2018-09-22T18:56:23.423Z,841.77
2018-09-22T18:58:55.665Z,845.83
2018-09-22T19:01:29.150Z,854.53
2018-09-22T19:03:59.743Z,851.63
2018-09-22T19:06:30.867Z,838.43
2018-09-22T19:09:01.416Z,822.80
2018-09-22T19:11:34.944Z,809.43
2018-09-22T19:14:42.025Z,798.73
2018-09-22T19:19:22.629Z,792.83
2018-09-22T19:21:56.489Z,799.90
2018-09-22T19:24:30.630Z,796.50
2018-09-22T19:27:04.689Z,802.77
2018-09-22T19:29:36.867Z,793.63
2018-09-22T19:32:23.299Z,793.90
2018-09-22T19:34:56.037Z,810.67
2018-09-22T19:37:29.224Z,829.87
2018-09-22T19:40:07.712Z,845.33
2018-09-22T19:42:41.497Z,820.67
2018-09-22T19:45:13.789Z,832.23
2018-09-22T19:48:16.835Z,850.70
2018-09-22T19:50:51.592Z,812.07
2018-09-22T19:53:20.075Z,842.07
2018-09-22T19:55:48.586Z,820.83
2018-09-22T19:58:17.071Z,826.80
2018-09-22T20:00:45.603Z,815.20
2018-09-22T20:03:14.071Z,817.00
2018-09-22T20:05:42.591Z,758.30
2018-09-22T20:08:11.071Z,728.43
2018-09-22T20:10:39.574Z,700.33
2018-09-22T20:13:09.755Z,664.07
2018-09-22T20:15:38.266Z,707.13
2018-09-22T20:18:06.813Z,684.00
2018-09-22T20:20:35.573Z,708.17
2018-09-22T20:23:04.099Z,642.80
2018-09-22T20:25:32.617Z,680.73
2018-09-22T20:28:01.063Z,623.80
2018-09-22T20:30:29.620Z,692.23
2018-09-22T20:32:58.098Z,666.87
2018-09-22T20:35:26.659Z,619.10
2018-09-22T20:37:55.148Z,550.53
2018-09-22T20:40:23.661Z,469.30
2018-09-22T20:42:52.184Z,520.37
2018-09-22T20:45:20.759Z,585.57
2018-09-22T20:47:49.291Z,643.07
2018-09-22T20:50:17.797Z,638.60
2018-09-22T20:52:46.273Z,609.10
2018-09-22T20:55:14.787Z,633.37
2018-09-22T20:57:43.302Z,621.17
2018-09-22T21:00:11.860Z,603.53
2018-09-22T21:02:40.355Z,620.10
2018-09-22T21:05:08.900Z,616.40
2018-09-22T21:07:37.665Z,573.37
2018-09-22T21:10:06.456Z,551.60
2018-09-22T21:12:35.000Z,541.40
2018-09-22T21:15:03.640Z,534.63
2018-09-22T21:17:32.338Z,541.50
2018-09-22T21:20:00.819Z,533.33
2018-09-22T21:22:29.313Z,496.40
2018-09-22T21:24:57.760Z,498.87
2018-09-22T21:27:26.278Z,496.70
2018-09-22T21:29:54.868Z,485.17
2018-09-22T21:32:23.359Z,480.30
2018-09-22T21:34:51.790Z,466.07
2018-09-22T21:37:20.395Z,441.77
2018-09-22T21:39:48.838Z,419.37
2018-09-22T21:42:23.876Z,391.17
2018-09-22T21:44:52.308Z,407.87
2018-09-22T21:47:20.871Z,413.60
2018-09-22T21:49:49.341Z,408.77
2018-09-22T21:52:17.827Z,424.07
2018-09-22T21:54:46.295Z,411.97
2018-09-22T21:57:14.783Z,410.10
2018-09-22T21:59:43.260Z,427.37
2018-09-22T22:02:11.711Z,419.40
2018-09-22T22:04:40.240Z,374.37
2018-09-22T22:07:08.873Z,361.33
2018-09-22T22:09:37.328Z,383.07
2018-09-22T22:12:05.841Z,350.03
2018-09-22T22:14:34.324Z,373.00
2018-09-22T22:17:02.832Z,358.20
2018-09-22T22:19:31.360Z,378.90
2018-09-22T22:21:59.812Z,383.63
2018-09-22T22:24:28.332Z,385.53
2018-09-22T22:26:56.803Z,384.10
2018-09-22T22:29:25.300Z,380.63
2018-09-22T22:31:53.786Z,390.13
2018-09-22T22:34:22.325Z,401.93
2018-09-22T22:36:50.836Z,431.57
2018-09-22T22:39:19.352Z,427.27
2018-09-22T22:41:47.847Z,447.77
2018-09-22T22:44:16.345Z,412.87
2018-09-22T22:46:45.093Z,407.43
2018-09-22T22:49:15.761Z,378.60
2018-09-22T22:51:44.513Z,347.47
2018-09-22T22:54:12.972Z,327.50
2018-09-22T22:56:41.439Z,272.43
2018-09-22T22:59:09.982Z,272.83
2018-09-22T23:01:38.428Z,238.23
2018-09-22T23:04:12.604Z,256.00
2018-09-22T23:06:41.773Z,259.33
2018-09-22T23:09:11.026Z,246.40
2018-09-22T23:11:40.544Z,211.57
2018-09-22T23:14:09.881Z,236.03
2018-09-22T23:16:39.181Z,240.73
2018-09-22T23:19:07.733Z,276.67
2018-09-22T23:21:36.507Z,291.40
2018-09-22T23:24:05.031Z,271.03
2018-09-22T23:26:33.652Z,242.03
2018-09-22T23:29:04.115Z,262.00
2018-09-22T23:31:33.717Z,253.90
2018-09-22T23:34:02.303Z,251.13
2018-09-22T23:36:30.812Z,278.13
2018-09-22T23:38:59.343Z,246.47
2018-09-22T23:41:27.789Z,248.40
2018-09-22T23:43:57.510Z,273.33
2018-09-22T23:46:26.007Z,308.50
2018-09-22T23:48:55.700Z,301.97
2018-09-22T23:51:24.295Z,289.40
2018-09-22T23:53:52.805Z,322.10
2018-09-22T23:56:21.676Z,316.40
2018-09-22T23:58:50.216Z,316.13
